Time;durP1;ratioP1;P1;durP2;ratioP2;P2;SDS_P1;SDS_P2;PMS_P1;PMS_P2;Temp;Humidity;BMP_temperature;BMP_pressure;BME280_temperature;BME280_humidity;BME280_pressure;Samples;Min_cycle;Max_cycle;Signal;HPM_P1;HPM_P2
2022/07/01 00:01:36;;;;;;;;;;;14.80;99.90;;;;;;5094449;28;20656;-66
2022/07/01 00:04:02;;;;;;;5.50;4.90;;;14.80;99.90;;;;;;5103511;28;19926;-66
2022/07/01 00:06:28;;;;;;;;;;;14.60;99.90;;;;;;5103992;28;20036;-66
2022/07/01 00:08:53;;;;;;;4.70;3.83;;;14.50;99.90;;;;;;5106258;28;19977;-66
2022/07/01 00:11:19;;;;;;;;;;;14.40;99.90;;;;;;5099415;28;20036;-66
2022/07/01 00:13:45;;;;;;;3.53;3.22;;;14.40;99.90;;;;;;5111298;28;19916;-67
2022/07/01 00:16:10;;;;;;;;;;;14.50;99.90;;;;;;5109002;28;20040;-66
2022/07/01 00:18:36;;;;;;;3.72;2.70;;;14.40;99.90;;;;;;5097012;28;19923;-65
2022/07/01 00:21:02;;;;;;;;;;;14.40;99.90;;;;;;5086219;28;20396;-66
2022/07/01 00:23:28;;;;;;;6.20;3.88;;;14.40;99.90;;;;;;5093495;28;19916;-65
2022/07/01 00:25:53;;;;;;;3.50;3.20;;;14.30;99.90;;;;;;5083077;28;20285;-66
2022/07/01 00:28:19;;;;;;;;;;;14.30;99.90;;;;;;5087573;28;20560;-66
2022/07/01 00:30:45;;;;;;;4.88;4.35;;;14.50;99.90;;;;;;5081590;28;19920;-65
2022/07/01 00:33:10;;;;;;;;;;;14.40;99.90;;;;;;5090587;28;20126;-65
2022/07/01 00:35:36;;;;;;;4.40;3.78;;;14.40;99.90;;;;;;5085756;28;19923;-67
2022/07/01 00:38:01;;;;;;;;;;;14.50;99.90;;;;;;5086478;28;20040;-66
2022/07/01 00:40:27;;;;;;;5.65;4.57;;;14.40;99.90;;;;;;5089608;28;19922;-65
2022/07/01 00:42:52;;;;;;;;;;;14.40;99.90;;;;;;5090148;28;20040;-66
2022/07/01 00:45:18;;;;;;;3.67;3.30;;;14.40;99.90;;;;;;5093684;28;19916;-65
2022/07/01 00:47:44;;;;;;;;;;;14.40;99.90;;;;;;5090619;28;20086;-65
2022/07/01 00:50:12;;;;;;;4.47;4.07;;;14.50;99.90;;;;;;5091156;28;19916;-66
2022/07/01 00:52:42;;;;;;;5.38;4.78;;;14.30;99.90;;;;;;5092257;28;20043;-65
2022/07/01 00:55:11;;;;;;;6.25;4.78;;;14.30;99.90;;;;;;5094313;28;20526;-65
2022/07/01 00:57:39;;;;;;;5.47;4.97;;;14.30;99.90;;;;;;5092208;28;20036;-66
2022/07/01 01:00:13;;;;;;;4.78;3.92;;;14.20;99.90;;;;;;5088898;28;20036;-66
2022/07/01 01:02:39;;;;;;;6.25;5.50;;;14.30;99.90;;;;;;5088814;28;20040;-66
2022/07/01 01:05:09;;;;;;;5.95;5.07;;;14.40;99.90;;;;;;5088060;28;20071;-66
2022/07/01 01:07:34;;;;;;;5.32;4.82;;;14.30;99.90;;;;;;5087756;28;20122;-66
2022/07/01 01:10:01;;;;;;;;;;;14.30;99.90;;;;;;5086377;28;20123;-66
2022/07/01 01:12:27;;;;;;;8.88;5.32;;;14.20;99.90;;;;;;5088007;28;19927;-65
2022/07/01 01:14:53;;;;;;;7.95;6.15;;;14.20;99.90;;;;;;5089462;28;20036;-67
2022/07/01 01:17:21;;;;;;;;;;;14.20;99.90;;;;;;5090114;28;20060;-66
2022/07/01 01:19:48;;;;;;;6.93;5.70;;;14.20;99.90;;;;;;5094143;28;19923;-64
2022/07/01 01:22:18;;;;;;;9.13;7.25;;;14.20;99.90;;;;;;5087591;28;20047;-67
2022/07/01 01:24:45;;;;;;;8.55;7.53;;;14.10;99.90;;;;;;5087995;28;20070;-65
2022/07/01 01:27:12;;;;;;;8.10;7.20;;;14.10;99.90;;;;;;5088367;28;20051;-64
2022/07/01 01:29:38;;;;;;;8.70;7.38;;;14.10;99.90;;;;;;5086814;28;20066;-67
2022/07/01 01:32:08;;;;;;;9.70;7.50;;;14.10;99.90;;;;;;5086530;28;20047;-67
2022/07/01 01:34:36;;;;;;;9.10;7.63;;;14.10;99.90;;;;;;5092642;28;20074;-65
2022/07/01 01:37:03;;;;;;;9.30;7.65;;;14.10;99.90;;;;;;5087911;28;20059;-66
2022/07/01 01:39:29;;;;;;;10.73;7.85;;;14.20;99.90;;;;;;5087365;28;20505;-67
2022/07/01 01:41:54;;;;;;;;;;;14.20;99.90;;;;;;5088865;28;20036;-66
2022/07/01 01:44:20;;;;;;;11.35;8.13;;;14.20;99.90;;;;;;5087110;28;20092;-66
2022/07/01 01:46:45;;;;;;;;;;;14.20;99.90;;;;;;5091592;28;20403;-65
2022/07/01 01:49:11;;;;;;;9.55;7.70;;;14.10;99.90;;;;;;5091701;28;19916;-65
2022/07/01 01:51:37;;;;;;;10.70;8.23;;;14.10;99.90;;;;;;5092402;28;20044;-66
2022/07/01 01:54:03;;;;;;;;;;;14.10;99.90;;;;;;5093608;28;20573;-66
2022/07/01 01:56:29;;;;;;;12.27;9.40;;;14.20;99.90;;;;;;5087313;28;19970;-66
2022/07/01 01:58:56;;;;;;;14.32;9.93;;;14.10;99.90;;;;;;5093711;28;20047;-66
2022/07/01 02:01:22;;;;;;;10.52;7.45;;;14.10;99.90;;;;;;5090363;28;20113;-66
2022/07/01 02:03:49;;;;;;;9.27;6.63;;;14.00;99.90;;;;;;5087781;28;20032;-66
2022/07/01 02:06:15;;;;;;;7.65;5.90;;;14.10;99.90;;;;;;5093103;28;20040;-66
2022/07/01 02:08:41;;;;;;;9.55;5.72;;;14.00;99.90;;;;;;5075164;28;20128;-67
2022/07/01 02:11:07;;;;;;;;;;;14.00;99.90;;;;;;5081093;28;20032;-66
2022/07/01 02:13:33;;;;;;;7.63;5.38;;;14.00;99.90;;;;;;5092423;28;19916;-66
2022/07/01 02:15:59;;;;;;;6.55;4.40;;;14.00;99.90;;;;;;5090157;28;20796;-65
2022/07/01 02:18:24;;;;;;;;;;;14.00;99.90;;;;;;5087079;28;20044;-67
2022/07/01 02:20:50;;;;;;;6.40;3.85;;;14.00;99.90;;;;;;5093691;28;19962;-65
2022/07/01 02:23:16;;;;;;;;;;;13.90;99.90;;;;;;5095862;28;20555;-66
2022/07/01 02:25:42;;;;;;;6.00;4.18;;;13.90;99.90;;;;;;5089494;28;20268;-66
2022/07/01 02:28:09;;;;;;;4.82;3.50;;;13.90;99.90;;;;;;5092183;28;20111;-66
2022/07/01 02:30:38;;;;;;;5.40;3.65;;;13.80;99.90;;;;;;5086652;28;20399;-66
2022/07/01 02:33:07;;;;;;;7.75;3.70;;;13.90;99.90;;;;;;5090014;28;20488;-65
2022/07/01 02:35:34;;;;;;;4.53;2.95;;;13.80;99.90;;;;;;5087031;28;20044;-64
2022/07/01 02:38:00;;;;;;;4.50;2.72;;;13.80;99.90;;;;;;5091990;28;20050;-65
2022/07/01 02:40:26;;;;;;;;;;;13.80;99.90;;;;;;5082894;28;20033;-64
2022/07/01 02:42:51;;;;;;;5.97;3.40;;;13.90;99.90;;;;;;5089129;28;19938;-65
2022/07/01 02:45:17;;;;;;;;;;;13.80;99.90;;;;;;5090812;28;20043;-65
2022/07/01 02:47:43;;;;;;;6.88;2.85;;;13.80;99.90;;;;;;5092085;28;19964;-64
2022/07/01 02:50:12;;;;;;;4.78;3.13;;;13.80;99.90;;;;;;5099165;28;20036;-63
2022/07/01 02:52:38;;;;;;;4.57;2.85;;;13.80;99.90;;;;;;5090621;28;20031;-64
2022/07/01 02:55:06;;;;;;;4.10;3.05;;;13.80;99.90;;;;;;5100534;28;20638;-65
2022/07/01 02:57:32;;;;;;;5.05;3.65;;;13.70;99.90;;;;;;5090674;28;20097;-65
2022/07/01 02:59:57;;;;;;;;;;;13.60;99.90;;;;;;5090602;28;20048;-65
2022/07/01 03:02:23;;;;;;;6.15;3.00;;;13.60;99.90;;;;;;5089971;28;20390;-64
2022/07/01 03:04:50;;;;;;;;;;;13.70;99.90;;;;;;5090445;28;20036;-65
2022/07/01 03:07:17;;;;;;;5.25;3.15;;;13.70;99.90;;;;;;5094390;28;19920;-65
2022/07/01 03:09:43;;;;;;;5.63;3.38;;;13.70;99.90;;;;;;5070294;28;20075;-65
2022/07/01 03:12:24;;;;;;;4.97;2.85;;;13.70;99.90;;;;;;5082897;28;20119;-65
2022/07/01 03:15:14;;;;;;;5.60;2.75;;;13.70;99.90;;;;;;5067492;28;20047;-64
2022/07/01 03:17:42;;;;;;;5.15;2.55;;;13.70;99.90;;;;;;5071050;28;20047;-66
2022/07/01 03:20:09;;;;;;;3.97;2.28;;;13.60;99.90;;;;;;5085659;28;20036;-65
2022/07/01 03:22:36;;;;;;;2.88;1.83;;;13.60;99.90;;;;;;5086034;28;20097;-65
2022/07/01 03:25:03;;;;;;;3.78;2.42;;;13.60;99.90;;;;;;5086620;28;20046;-65
2022/07/01 03:27:29;;;;;;;2.97;1.98;;;13.70;99.90;;;;;;5090542;28;20040;-65
2022/07/01 03:29:55;;;;;;;;;;;13.70;99.90;;;;;;5086365;28;20396;-64
2022/07/01 03:32:21;;;;;;;5.10;2.83;;;13.80;99.90;;;;;;5087571;28;19984;-65
2022/07/01 03:34:49;;;;;;;6.88;2.40;;;13.70;99.90;;;;;;5086069;28;20040;-63
2022/07/01 03:37:16;;;;;;;6.70;2.33;;;13.80;99.90;;;;;;5086371;28;20044;-65
2022/07/01 03:39:42;;;;;;;3.25;2.10;;;13.70;99.90;;;;;;5090102;28;20047;-65
2022/07/01 03:42:08;;;;;;;;;;;13.70;99.90;;;;;;5084984;28;20114;-65
2022/07/01 03:44:35;;;;;;;2.95;2.20;;;13.70;99.90;;;;;;5085990;28;20015;-65
2022/07/01 03:47:01;;;;;;;4.18;2.42;;;13.70;99.90;;;;;;5084193;28;20040;-65
2022/07/01 03:49:27;;;;;;;3.67;1.90;;;13.70;99.90;;;;;;5074688;28;20051;-65
2022/07/01 03:51:53;;;;;;;;;;;13.70;99.90;;;;;;5069373;28;20044;-65
2022/07/01 03:54:38;;;;;;;2.97;2.10;;;13.70;99.90;;;;;;5084036;28;20002;-63
2022/07/01 03:57:09;;;;;;;3.92;2.00;;;13.70;99.90;;;;;;5080989;28;20044;-65
2022/07/01 03:59:37;;;;;;;4.10;1.95;;;13.60;99.90;;;;;;5094479;28;20082;-63
2022/07/01 04:02:03;;;;;;;2.45;1.55;;;13.70;99.90;;;;;;5082697;28;20040;-65
2022/07/01 04:04:29;;;;;;;3.45;1.85;;;13.70;99.90;;;;;;5088731;28;20063;-63
2022/07/01 04:06:56;;;;;;;;;;;13.70;99.90;;;;;;5092034;28;20516;-69
2022/07/01 04:09:24;;;;;;;2.35;1.75;;;13.70;99.90;;;;;;5083662;28;19927;-60
2022/07/01 04:11:50;;;;;;;5.68;2.47;;;13.70;99.90;;;;;;5086409;28;20563;-65
2022/07/01 04:14:16;;;;;;;3.33;2.70;;;13.70;99.90;;;;;;5081670;28;20039;-65
2022/07/01 04:16:44;;;;;;;3.45;2.70;;;13.70;99.90;;;;;;5079501;28;20082;-65
2022/07/01 04:19:10;;;;;;;4.30;2.10;;;13.70;99.90;;;;;;5085641;28;20043;-65
2022/07/01 04:24:24;;;;;;;3.92;2.97;;;13.60;99.90;;;;;;5088891;28;20036;-65
2022/07/01 04:26:50;;;;;;;3.40;2.70;;;13.50;99.90;;;;;;5092123;28;20179;-66
2022/07/01 04:29:17;;;;;;;4.10;3.05;;;13.50;99.90;;;;;;5092542;28;20032;-66
2022/07/01 04:31:42;;;;;;;4.43;2.78;;;13.50;99.90;;;;;;5088014;28;20097;-65
2022/07/01 04:34:09;;;;;;;;;;;13.60;99.90;;;;;;5088795;28;20040;-65
2022/07/01 04:36:35;;;;;;;2.45;2.25;;;13.70;99.90;;;;;;5090165;28;19926;-65
2022/07/01 04:39:06;;;;;;;3.10;2.22;;;13.60;99.90;;;;;;5088927;28;20040;-66
2022/07/01 04:44:18;;;;;;;5.15;3.58;;;13.70;99.90;;;;;;5088393;28;20036;-65
2022/07/01 04:46:44;;;;;;;3.38;3.00;;;13.60;99.90;;;;;;5071981;28;20093;-66
2022/07/01 04:49:10;;;;;;;;;;;13.50;99.90;;;;;;5083647;28;20036;-69
2022/07/01 04:51:36;;;;;;;4.43;3.35;;;13.50;99.90;;;;;;5087558;28;19920;-67
2022/07/01 04:54:02;;;;;;;;;;;13.50;99.90;;;;;;5088238;28;20032;-67
2022/07/01 04:56:28;;;;;;;5.00;3.53;;;13.60;99.90;;;;;;5087464;28;20405;-67
2022/07/01 04:58:55;;;;;;;5.53;3.05;;;13.50;99.90;;;;;;5087264;28;20036;-66
2022/07/01 05:01:20;;;;;;;4.05;3.45;;;13.50;99.90;;;;;;5088408;28;20040;-66
2022/07/01 05:03:46;;;;;;;;;;;13.50;99.90;;;;;;5089467;28;20047;-66
2022/07/01 05:06:12;;;;;;;4.68;2.88;;;13.40;99.90;;;;;;5091768;28;20291;-66
2022/07/01 05:08:37;;;;;;;;;;;13.50;99.90;;;;;;5087832;28;20051;-66
2022/07/01 05:11:03;;;;;;;4.03;3.33;;;13.50;99.90;;;;;;5088155;28;19912;-66
2022/07/01 05:13:28;;;;;;;;;;;13.50;99.90;;;;;;5091881;28;20083;-67
2022/07/01 05:15:54;;;;;;;4.05;3.28;;;13.60;99.90;;;;;;5087618;28;19919;-66
2022/07/01 05:23:48;;;;;;;5.22;4.70;;;13.30;99.90;;;;;;5086615;28;20115;-65
2022/07/01 05:26:17;;;;;;;;;;;13.30;99.90;;;;;;5091476;28;20217;-66
2022/07/01 05:28:43;;;;;;;4.53;3.88;;;13.30;99.90;;;;;;5087204;28;19961;-64
2022/07/01 05:31:09;;;;;;;4.65;3.95;;;13.40;99.90;;;;;;5090452;28;20123;-66
2022/07/01 05:33:34;;;;;;;;;;;13.40;99.90;;;;;;5088363;28;20591;-65
2022/07/01 05:36:01;;;;;;;5.28;4.78;;;13.40;99.90;;;;;;5090548;28;19912;-66
2022/07/01 05:38:26;;;;;;;4.60;3.80;;;13.30;99.90;;;;;;5085377;28;20078;-65
2022/07/01 05:40:53;;;;;;;;;;;13.30;99.90;;;;;;5088148;28;20075;-66
2022/07/01 05:43:19;;;;;;;4.38;3.97;;;13.40;99.90;;;;;;5091317;28;19923;-67
2022/07/01 05:45:45;;;;;;;4.65;3.85;;;13.50;99.90;;;;;;5091464;28;20770;-66
2022/07/01 05:48:10;;;;;;;;;;;13.50;99.90;;;;;;5091236;28;20043;-66
2022/07/01 05:50:36;;;;;;;4.35;3.92;;;13.40;99.90;;;;;;5086372;28;20002;-65
2022/07/01 05:53:02;;;;;;;;;;;13.40;99.90;;;;;;5090624;28;20100;-66
2022/07/01 05:55:27;;;;;;;6.15;4.68;;;13.30;99.90;;;;;;5065695;28;19923;-66
2022/07/01 05:57:53;;;;;;;;;;;13.40;99.90;;;;;;5070288;28;20455;-66
2022/07/01 06:00:18;;;;;;;5.47;4.07;;;13.40;99.90;;;;;;5080595;28;20517;-66
2022/07/01 06:02:44;;;;;;;;;;;13.40;99.90;;;;;;5083970;28;20051;-67
2022/07/01 06:05:09;;;;;;;6.13;4.90;;;13.50;99.90;;;;;;5086921;28;19980;-66
2022/07/01 06:07:35;;;;;;;;;;;13.40;99.90;;;;;;5089648;28;20328;-66
2022/07/01 06:10:01;;;;;;;6.32;4.75;;;13.40;99.90;;;;;;5085829;28;19920;-66
2022/07/01 06:12:26;;;;;;;;;;;13.40;99.90;;;;;;5090332;28;20128;-66
2022/07/01 06:14:52;;;;;;;5.32;4.32;;;13.40;99.90;;;;;;5087467;28;19916;-67
2022/07/01 06:17:17;;;;;;;;;;;13.30;99.90;;;;;;5087083;28;20054;-66
2022/07/01 06:19:44;;;;;;;5.57;4.20;;;13.40;99.90;;;;;;5089643;28;19916;-66
2022/07/01 06:22:10;;;;;;;5.63;4.30;;;13.40;99.90;;;;;;5085763;28;20040;-66
2022/07/01 06:24:35;;;;;;;;;;;13.50;99.90;;;;;;5082453;28;20032;-67
2022/07/01 06:27:01;;;;;;;6.88;4.10;;;13.50;99.90;;;;;;5088797;28;19931;-65
2022/07/01 06:29:29;;;;;;;;;;;13.40;99.90;;;;;;5090008;28;20043;-66
2022/07/01 06:31:55;;;;;;;7.43;3.97;;;13.40;99.90;;;;;;5089566;28;20056;-65
2022/07/01 06:34:20;;;;;;;;;;;13.50;99.90;;;;;;5087416;28;20119;-66
2022/07/01 06:36:46;;;;;;;4.22;3.17;;;13.40;99.90;;;;;;5086349;28;19923;-66
2022/07/01 06:39:11;;;;;;;;;;;13.40;99.90;;;;;;5088441;28;20036;-66
2022/07/01 06:41:37;;;;;;;3.55;2.38;;;13.50;99.90;;;;;;5083435;28;20327;-65
2022/07/01 06:44:04;;;;;;;;;;;13.50;99.90;;;;;;5090202;28;20552;-67
2022/07/01 06:46:31;;;;;;;4.30;3.05;;;13.60;99.90;;;;;;5087261;28;20015;-66
2022/07/01 06:48:58;;;;;;;4.65;2.85;;;13.60;99.90;;;;;;5090548;28;20044;-66
2022/07/01 06:51:24;;;;;;;4.63;3.03;;;13.60;99.90;;;;;;5087385;28;20047;-65
2022/07/01 06:53:50;;;;;;;7.35;2.30;;;13.50;99.90;;;;;;5088313;28;20399;-65
2022/07/01 06:56:16;;;;;;;;;;;13.50;99.90;;;;;;5087681;28;20101;-67
2022/07/01 06:58:42;;;;;;;3.50;2.80;;;13.60;99.90;;;;;;5087488;28;19985;-65
2022/07/01 07:01:08;;;;;;;3.63;2.53;;;13.60;99.90;;;;;;5088985;28;20123;-66
2022/07/01 07:03:34;;;;;;;;;;;13.60;99.90;;;;;;5089187;28;20123;-66
2022/07/01 07:06:00;;;;;;;4.10;2.92;;;13.60;99.90;;;;;;5090635;28;20019;-66
2022/07/01 07:08:26;;;;;;;2.30;2.10;;;13.60;99.90;;;;;;5085563;28;20085;-66
2022/07/01 07:10:52;;;;;;;4.53;2.25;;;13.60;99.90;;;;;;5088104;28;20059;-66
2022/07/01 07:13:18;;;;;;;;;;;13.60;99.90;;;;;;5087276;28;20063;-67
2022/07/01 07:15:44;;;;;;;5.90;2.47;;;13.70;99.90;;;;;;5089991;28;19919;-66
2022/07/01 07:18:09;;;;;;;;;;;13.80;99.90;;;;;;5093075;28;20598;-67
2022/07/01 07:20:35;;;;;;;7.07;2.80;;;13.60;99.90;;;;;;5088826;28;19920;-67
2022/07/01 07:23:01;;;;;;;;;;;13.50;99.90;;;;;;5088995;28;20675;-67
2022/07/01 07:25:27;;;;;;;5.40;3.03;;;13.60;99.90;;;;;;5090287;28;20330;-68
2022/07/01 07:27:52;;;;;;;4.82;3.30;;;13.60;99.90;;;;;;5086860;28;20055;-67
2022/07/01 07:30:18;;;;;;;;;;;13.60;99.90;;;;;;5093611;28;20047;-66
2022/07/01 07:32:44;;;;;;;3.70;2.67;;;13.70;99.90;;;;;;5091722;28;19938;-66
2022/07/01 07:35:10;;;;;;;4.70;2.92;;;13.90;99.90;;;;;;5091534;28;20041;-65
2022/07/01 07:37:36;;;;;;;7.00;3.40;;;14.10;99.90;;;;;;5088110;28;20643;-67
2022/07/01 07:40:03;;;;;;;;;;;14.20;99.90;;;;;;5076355;28;20036;-66
2022/07/01 07:42:29;;;;;;;;;;;14.40;99.90;;;;;;5091975;28;19924;-67
2022/07/01 07:44:55;;;;;;;4.45;2.70;;;14.20;99.90;;;;;;5088822;28;19922;-67
2022/07/01 07:47:20;;;;;;;;;;;14.10;99.90;;;;;;5091143;28;20119;-66
2022/07/01 07:49:46;;;;;;;3.30;2.05;;;14.00;99.90;;;;;;5089144;28;20272;-67
2022/07/01 07:52:12;;;;;;;;;;;14.00;99.90;;;;;;5095873;28;20043;-66
2022/07/01 07:54:38;;;;;;;2.63;2.35;;;14.00;99.90;;;;;;5088225;28;20294;-68
2022/07/01 07:57:05;;;;;;;3.72;2.45;;;14.00;99.90;;;;;;5093446;28;20089;-68
2022/07/01 07:59:30;;;;;;;9.85;3.10;;;14.10;99.90;;;;;;5093907;28;20127;-66
2022/07/01 08:01:56;;;;;;;;;;;14.20;99.90;;;;;;5092235;28;20131;-66
2022/07/01 08:04:22;;;;;;;2.85;2.20;;;14.20;99.90;;;;;;5092790;28;19919;-67
2022/07/01 08:06:47;;;;;;;;;;;14.40;99.90;;;;;;5089985;28;20048;-67
2022/07/01 08:09:13;;;;;;;3.15;2.60;;;14.50;99.90;;;;;;5089751;28;19920;-67
2022/07/01 08:11:38;;;;;;;;;;;14.50;99.90;;;;;;5089015;28;20044;-67
2022/07/01 08:14:04;;;;;;;5.50;2.97;;;14.30;99.90;;;;;;5090229;28;19916;-66
2022/07/01 08:16:30;;;;;;;;;;;14.30;99.90;;;;;;5089539;28;20047;-67
2022/07/01 08:18:56;;;;;;;4.60;2.40;;;14.40;99.90;;;;;;5089637;28;19916;-67
2022/07/01 08:21:22;;;;;;;4.30;2.58;;;14.50;99.90;;;;;;5088737;28;20040;-67
2022/07/01 08:23:48;;;;;;;;;;;14.60;99.90;;;;;;5090735;28;20040;-66
2022/07/01 08:26:15;;;;;;;8.20;3.20;;;14.50;99.90;;;;;;5091591;28;20011;-66
2022/07/01 08:28:42;;;;;;;4.55;2.92;;;14.40;99.90;;;;;;5089633;28;20039;-68
2022/07/01 08:31:08;;;;;;;11.60;3.20;;;14.60;99.90;;;;;;5080771;28;20032;-65
2022/07/01 08:33:34;;;;;;;;;;;14.90;99.90;;;;;;5085695;28;20043;-63
2022/07/01 08:36:00;;;;;;;11.63;3.00;;;14.90;99.90;;;;;;5089901;28;19916;-63
2022/07/01 08:38:25;;;;;;;;;;;14.90;99.90;;;;;;5087389;28;20036;-63
2022/07/01 08:40:51;;;;;;;4.35;2.70;;;14.90;99.90;;;;;;5084603;28;19920;-62
2022/07/01 08:43:16;;;;;;;;;;;15.10;99.90;;;;;;5080194;28;20089;-64
2022/07/01 08:45:42;;;;;;;7.90;3.70;;;14.90;99.90;;;;;;5080497;28;19916;-61
2022/07/01 08:48:08;;;;;;;;;;;14.70;99.90;;;;;;5088183;28;20028;-62
2022/07/01 08:50:38;;;;;;;4.97;3.47;;;14.70;99.90;;;;;;5087238;28;19920;-62
2022/07/01 08:53:05;;;;;;;4.38;3.25;;;14.80;99.90;;;;;;5088532;28;20031;-67
2022/07/01 08:55:31;;;;;;;8.30;4.88;;;14.90;99.90;;;;;;5087871;28;20048;-67
2022/07/01 08:57:56;;;;;;;;;;;15.10;99.90;;;;;;5087490;28;20506;-67
2022/07/01 09:00:28;;;;;;;10.80;5.25;;;15.20;99.90;;;;;;5086548;28;19920;-67
2022/07/01 09:02:57;;;;;;;4.30;3.30;;;15.30;99.90;;;;;;5086518;28;20448;-67
2022/07/01 09:05:24;;;;;;;5.13;3.13;;;15.20;99.90;;;;;;5088353;28;20075;-68
2022/07/01 09:08:02;;;;;;;9.73;4.13;;;15.20;99.90;;;;;;5087667;28;20044;-66
2022/07/01 09:10:34;;;;;;;7.05;4.15;;;15.10;99.90;;;;;;5085786;28;20408;-67
2022/07/01 09:13:11;;;;;;;9.23;5.50;;;15.00;99.90;;;;;;5088169;28;20105;-67
2022/07/01 09:15:39;;;;;;;6.00;3.92;;;14.90;99.90;;;;;;5089209;28;20126;-67
2022/07/01 09:18:13;;;;;;;8.10;4.15;;;15.00;99.90;;;;;;5088290;28;20040;-67
2022/07/01 09:20:41;;;;;;;9.63;4.40;;;15.10;99.90;;;;;;5085905;28;20503;-67
2022/07/01 09:23:15;;;;;;;11.75;5.40;;;15.20;99.90;;;;;;5088287;28;20514;-67
2022/07/01 09:25:49;;;;;;;11.73;5.35;;;15.20;99.90;;;;;;5087771;28;20598;-66
2022/07/01 09:28:17;;;;;;;6.53;4.85;;;15.20;99.90;;;;;;5087812;28;20048;-67
2022/07/01 09:30:45;;;;;;;14.63;5.47;;;15.00;99.90;;;;;;5088281;28;20040;-67
2022/07/01 09:33:15;;;;;;;9.68;4.75;;;14.90;99.90;;;;;;5089492;28;20657;-67
2022/07/01 09:35:42;;;;;;;5.85;4.60;;;14.90;99.90;;;;;;5087225;28;20071;-67
2022/07/01 09:38:12;;;;;;;10.35;6.43;;;15.00;99.90;;;;;;5089026;28;20036;-67
2022/07/01 09:40:57;;;;;;;6.82;5.28;;;14.90;99.90;;;;;;5087370;28;20043;-67
2022/07/01 09:43:28;;;;;;;8.02;4.65;;;14.90;99.90;;;;;;5087173;28;20044;-67
2022/07/01 09:45:58;;;;;;;6.53;4.68;;;15.00;99.90;;;;;;5067881;28;20045;-67
2022/07/01 09:48:27;;;;;;;10.45;5.65;;;15.00;99.90;;;;;;5067110;28;20037;-66
2022/07/01 09:50:54;;;;;;;6.97;5.03;;;15.00;99.90;;;;;;5075410;28;20048;-67
2022/07/01 09:53:21;;;;;;;6.70;4.97;;;15.00;99.90;;;;;;5087600;28;20035;-66
2022/07/01 09:55:46;;;;;;;;;;;15.00;99.90;;;;;;5090762;28;20096;-68
2022/07/01 09:58:12;;;;;;;11.00;5.40;;;15.00;99.90;;;;;;5088266;28;19982;-67
2022/07/01 10:00:38;;;;;;;10.73;5.53;;;15.00;99.90;;;;;;5091147;28;20190;-67
2022/07/01 10:03:05;;;;;;;;;;;15.00;99.90;;;;;;5086260;28;20127;-69
2022/07/01 10:05:33;;;;;;;;;;;15.00;99.90;;;;;;5085260;28;20384;-67
2022/07/01 10:08:35;;;;;;;6.90;5.38;;;15.00;99.90;;;;;;5081884;28;19923;-69
2022/07/01 10:11:39;;;;;;;8.18;6.35;;;15.00;99.90;;;;;;5086434;28;20201;-66
2022/07/01 10:14:07;;;;;;;8.50;6.68;;;15.00;99.90;;;;;;5085405;28;20055;-66
2022/07/01 10:16:34;;;;;;;8.75;6.38;;;14.90;99.90;;;;;;5086043;28;20032;-66
2022/07/01 10:19:25;;;;;;;9.32;6.93;;;15.00;99.90;;;;;;5090636;28;20571;-67
2022/07/01 10:21:57;;;;;;;8.27;6.75;;;14.90;99.90;;;;;;5065963;28;20044;-67
2022/07/01 10:24:25;;;;;;;10.43;7.57;;;14.80;99.90;;;;;;5084009;28;20175;-67
2022/07/01 10:26:51;;;;;;;10.48;7.20;;;14.60;99.90;;;;;;5086118;28;20674;-67
2022/07/01 10:29:34;;;;;;;10.60;7.28;;;14.50;99.90;;;;;;5091208;28;20094;-67
2022/07/01 10:32:11;;;;;;;17.23;7.18;;;14.50;99.90;;;;;;5087474;28;20059;-66
2022/07/01 10:34:41;;;;;;;8.27;6.20;;;14.70;99.90;;;;;;5080887;28;20102;-67
2022/07/01 10:37:09;;;;;;;14.32;6.88;;;14.80;99.90;;;;;;5086232;28;20492;-68
2022/07/01 10:39:53;;;;;;;11.52;7.35;;;14.90;99.90;;;;;;5083514;28;20126;-64
2022/07/01 10:42:19;;;;;;;10.43;6.97;;;15.00;99.90;;;;;;5080459;28;20046;-69
2022/07/01 10:45:11;;;;;;;9.63;6.80;;;15.10;99.90;;;;;;5082451;28;20110;-70
2022/07/01 10:47:39;;;;;;;14.73;7.75;;;15.10;99.90;;;;;;5082635;28;20028;-68
2022/07/01 10:50:16;;;;;;;9.27;6.40;;;15.10;99.90;;;;;;5082622;28;20047;-67
2022/07/01 10:53:01;;;;;;;9.57;6.07;;;15.10;99.90;;;;;;5078627;28;20686;-71
2022/07/01 10:55:40;;;;;;;14.43;6.40;;;15.10;99.90;;;;;;5082823;28;20036;-65
2022/07/01 10:58:06;;;;;;;10.68;6.38;;;15.00;99.90;;;;;;5083842;28;20073;-65
2022/07/01 11:00:34;;;;;;;;;;;15.10;99.90;;;;;;5082235;28;20092;-66
2022/07/01 11:03:11;;;;;;;9.35;6.10;;;15.10;99.90;;;;;;5097737;28;19920;-66
2022/07/01 11:05:37;;;;;;;11.82;6.13;;;15.20;99.90;;;;;;5101262;28;20043;-65
2022/07/01 11:08:06;;;;;;;7.60;5.60;;;15.20;99.90;;;;;;5088747;28;20501;-65
2022/07/01 11:10:32;;;;;;;9.18;6.07;;;15.40;99.90;;;;;;5078973;28;20512;-66
2022/07/01 11:12:58;;;;;;;;;;;15.40;99.90;;;;;;5085362;28;20099;-67
2022/07/01 11:15:25;;;;;;;6.72;5.47;;;15.50;99.90;;;;;;5093344;28;20218;-65
2022/07/01 11:17:51;;;;;;;7.13;5.90;;;15.50;99.90;;;;;;5086068;28;20097;-66
2022/07/01 11:20:17;;;;;;;;;;;15.60;99.90;;;;;;5077137;28;20123;-66
2022/07/01 11:22:42;;;;;;;8.38;5.88;;;15.60;99.90;;;;;;5097895;28;19920;-66
2022/07/01 11:25:09;;;;;;;;;;;15.60;99.90;;;;;;5108516;28;20047;-68
2022/07/01 11:27:36;;;;;;;8.27;5.53;;;15.60;99.90;;;;;;5087967;28;19924;-66
2022/07/01 11:30:12;;;;;;;5.95;4.75;;;15.70;99.90;;;;;;5102442;28;20791;-66
2022/07/01 11:32:49;;;;;;;9.80;5.45;;;15.70;99.90;;;;;;5101396;28;20092;-66
2022/07/01 11:41:07;;;;;;;7.03;5.10;;;15.90;99.90;;;;;;5066563;28;20036;-66
2022/07/01 11:43:35;;;;;;;7.63;4.97;;;15.90;99.90;;;;;;5077761;28;20044;-68
2022/07/01 11:46:03;;;;;;;8.07;4.72;;;16.00;99.90;;;;;;5088564;28;20075;-66
2022/07/01 11:48:37;;;;;;;4.22;3.53;;;16.10;99.90;;;;;;5104868;28;20042;-65
2022/07/01 11:51:11;;;;;;;7.05;3.40;;;16.10;99.40;;;;;;5101774;28;20039;-65
2022/07/01 11:53:42;;;;;;;3.20;2.60;;;16.10;99.80;;;;;;5091008;28;20051;-64
2022/07/01 11:56:08;;;;;;;4.20;3.30;;;16.20;99.90;;;;;;5088853;28;20582;-65
2022/07/01 11:59:03;;;;;;;;;;;16.40;99.90;;;;;;5066530;28;20079;-66
2022/07/01 12:01:34;;;;;;;5.43;2.55;;;16.60;99.40;;;;;;5064154;28;19920;-66
2022/07/01 12:04:05;;;;;;;4.72;2.10;;;16.70;99.30;;;;;;5065357;28;20442;-66
2022/07/01 12:06:32;;;;;;;5.30;2.03;;;16.70;98.60;;;;;;5067951;28;20045;-65
2022/07/01 12:08:58;;;;;;;3.67;1.85;;;16.70;98.40;;;;;;5069845;28;20404;-66
2022/07/01 12:11:24;;;;;;;;;;;16.70;99.20;;;;;;5061344;28;20345;-65
2022/07/01 12:13:51;;;;;;;7.15;2.72;;;16.80;98.60;;;;;;5063089;28;19923;-67
2022/07/01 12:16:18;;;;;;;3.65;2.03;;;16.70;97.20;;;;;;5072086;28;20109;-66
2022/07/01 12:18:53;;;;;;;3.53;2.20;;;16.80;98.50;;;;;;5068932;28;20046;-66
2022/07/01 12:21:19;;;;;;;9.17;2.10;;;16.80;97.90;;;;;;5069044;28;20037;-66
2022/07/01 12:24:04;;;;;;;;;;;16.80;97.90;;;;;;5066681;28;20781;-66
2022/07/01 12:26:30;;;;;;;4.53;2.25;;;16.90;98.10;;;;;;5069412;28;19920;-66
2022/07/01 12:28:55;;;;;;;;;;;17.00;98.60;;;;;;5072927;28;20040;-66
2022/07/01 12:31:21;;;;;;;12.25;2.80;;;17.10;97.80;;;;;;5076240;28;20019;-66
2022/07/01 12:33:50;;;;;;;6.57;2.90;;;17.40;97.10;;;;;;5068183;28;20098;-66
2022/07/01 12:36:16;;;;;;;4.82;2.33;;;17.50;95.50;;;;;;5069894;28;20160;-66
2022/07/01 12:38:42;;;;;;;;;;;17.70;95.50;;;;;;5076145;28;20130;-66
2022/07/01 12:41:33;;;;;;;5.00;2.67;;;17.80;95.30;;;;;;5057470;28;19971;-65
2022/07/01 12:44:01;;;;;;;4.90;2.40;;;17.90;95.20;;;;;;5074789;28;20068;-66
2022/07/01 12:46:28;;;;;;;5.43;2.47;;;17.60;93.80;;;;;;5068439;28;20071;-67
2022/07/01 12:48:54;;;;;;;4.53;1.92;;;17.50;95.40;;;;;;5056121;28;20045;-67
2022/07/01 12:51:20;;;;;;;;;;;17.80;96.00;;;;;;5067335;28;20043;-67
2022/07/01 12:53:45;;;;;;;5.03;2.80;;;17.70;93.80;;;;;;5072696;28;19923;-67
2022/07/01 12:56:21;;;;;;;;;;;17.50;94.00;;;;;;5066524;28;20040;-66
2022/07/01 12:58:47;;;;;;;5.07;2.38;;;17.40;94.90;;;;;;5070611;28;20383;-66
2022/07/01 13:01:13;;;;;;;;;;;17.30;95.50;;;;;;5070556;28;20040;-66
2022/07/01 13:03:39;;;;;;;5.18;2.22;;;17.20;94.80;;;;;;5084559;28;20019;-66
2022/07/01 13:06:04;;;;;;;;;;;17.30;94.70;;;;;;5086002;28;20140;-66
2022/07/01 13:08:30;;;;;;;6.10;2.55;;;17.20;94.70;;;;;;5085917;28;20041;-66
2022/07/01 13:10:55;;;;;;;2.75;2.47;;;17.10;95.00;;;;;;5088280;28;20468;-67
2022/07/01 13:13:21;;;;;;;;;;;17.30;95.40;;;;;;5085677;28;20115;-66
2022/07/01 13:15:47;;;;;;;3.13;2.38;;;17.50;95.30;;;;;;5086472;28;19938;-66
2022/07/01 13:18:16;;;;;;;;;;;17.60;95.20;;;;;;5088765;28;20032;-66
2022/07/01 13:20:43;;;;;;;3.75;2.17;;;17.60;94.90;;;;;;5087799;28;19943;-67
2022/07/01 13:23:09;;;;;;;3.70;1.92;;;17.60;94.60;;;;;;5088703;28;20101;-66
2022/07/01 13:25:35;;;;;;;;;;;17.60;94.90;;;;;;5088594;28;20040;-67
2022/07/01 13:28:00;;;;;;;6.40;1.95;;;17.80;94.60;;;;;;5091975;28;20337;-67